sensor_id;sensor_type;location;lat;lon;timestamp;P1;durP1;ratioP1;P2;durP2;ratioP2
36355;SDS011;22384;54.302;18.596;2023-10-13T00:00:32;12.05;;;2.80;;
36355;SDS011;22384;54.302;18.596;2023-10-13T00:03:01;14.77;;;3.28;;
36355;SDS011;22384;54.302;18.596;2023-10-13T00:05:27;12.55;;;2.10;;
36355;SDS011;22384;54.302;18.596;2023-10-13T00:07:55;10.48;;;2.25;;
36355;SDS011;22384;54.302;18.596;2023-10-13T00:10:22;9.30;;;2.10;;
36355;SDS011;22384;54.302;18.596;2023-10-13T00:12:48;11.93;;;2.63;;
36355;SDS011;22384;54.302;18.596;2023-10-13T00:15:18;9.43;;;2.10;;
36355;SDS011;22384;54.302;18.596;2023-10-13T00:17:53;12.00;;;1.98;;
36355;SDS011;22384;54.302;18.596;2023-10-13T00:20:20;13.32;;;2.47;;
36355;SDS011;22384;54.302;18.596;2023-10-13T00:23:00;16.05;;;2.67;;
36355;SDS011;22384;54.302;18.596;2023-10-13T00:28:08;11.52;;;1.92;;
36355;SDS011;22384;54.302;18.596;2023-10-13T00:30:34;8.73;;;2.05;;
36355;SDS011;22384;54.302;18.596;2023-10-13T00:33:02;15.32;;;2.72;;
36355;SDS011;22384;54.302;18.596;2023-10-13T00:35:29;12.68;;;2.38;;
36355;SDS011;22384;54.302;18.596;2023-10-13T00:38:05;14.88;;;3.22;;
36355;SDS011;22384;54.302;18.596;2023-10-13T00:40:38;16.45;;;2.35;;
36355;SDS011;22384;54.302;18.596;2023-10-13T00:43:04;14.25;;;2.55;;
36355;SDS011;22384;54.302;18.596;2023-10-13T00:45:45;15.40;;;1.98;;
36355;SDS011;22384;54.302;18.596;2023-10-13T00:48:33;13.40;;;2.20;;
36355;SDS011;22384;54.302;18.596;2023-10-13T00:51:03;15.00;;;2.50;;
36355;SDS011;22384;54.302;18.596;2023-10-13T00:53:33;9.50;;;3.05;;
36355;SDS011;22384;54.302;18.596;2023-10-13T00:56:02;14.15;;;2.42;;
36355;SDS011;22384;54.302;18.596;2023-10-13T00:58:35;10.88;;;2.50;;
36355;SDS011;22384;54.302;18.596;2023-10-13T01:01:04;14.52;;;2.60;;
36355;SDS011;22384;54.302;18.596;2023-10-13T01:03:54;9.38;;;2.58;;
36355;SDS011;22384;54.302;18.596;2023-10-13T01:06:23;13.60;;;2.50;;
36355;SDS011;22384;54.302;18.596;2023-10-13T01:09:00;20.00;;;2.75;;
36355;SDS011;22384;54.302;18.596;2023-10-13T01:11:35;15.07;;;2.92;;
36355;SDS011;22384;54.302;18.596;2023-10-13T01:14:01;9.05;;;2.28;;
36355;SDS011;22384;54.302;18.596;2023-10-13T01:16:29;17.02;;;2.40;;
36355;SDS011;22384;54.302;18.596;2023-10-13T01:18:55;9.02;;;2.40;;
36355;SDS011;22384;54.302;18.596;2023-10-13T01:21:24;14.82;;;2.30;;
36355;SDS011;22384;54.302;18.596;2023-10-13T01:23:53;15.93;;;3.33;;
36355;SDS011;22384;54.302;18.596;2023-10-13T01:26:19;12.55;;;2.72;;
36355;SDS011;22384;54.302;18.596;2023-10-13T01:28:51;11.55;;;2.65;;
36355;SDS011;22384;54.302;18.596;2023-10-13T01:31:19;17.10;;;5.05;;
36355;SDS011;22384;54.302;18.596;2023-10-13T01:33:55;23.52;;;4.53;;
36355;SDS011;22384;54.302;18.596;2023-10-13T01:36:26;13.68;;;3.20;;
36355;SDS011;22384;54.302;18.596;2023-10-13T01:38:52;12.63;;;3.05;;
36355;SDS011;22384;54.302;18.596;2023-10-13T01:41:18;10.20;;;2.13;;
36355;SDS011;22384;54.302;18.596;2023-10-13T01:43:44;11.55;;;1.85;;
36355;SDS011;22384;54.302;18.596;2023-10-13T01:46:10;11.05;;;2.03;;
36355;SDS011;22384;54.302;18.596;2023-10-13T01:48:40;8.98;;;2.70;;
36355;SDS011;22384;54.302;18.596;2023-10-13T01:51:08;11.85;;;2.15;;
36355;SDS011;22384;54.302;18.596;2023-10-13T01:53:37;13.13;;;2.20;;
36355;SDS011;22384;54.302;18.596;2023-10-13T01:56:04;9.20;;;1.80;;
36355;SDS011;22384;54.302;18.596;2023-10-13T01:58:39;15.15;;;2.03;;
36355;SDS011;22384;54.302;18.596;2023-10-13T02:01:12;9.45;;;2.10;;
36355;SDS011;22384;54.302;18.596;2023-10-13T02:03:51;8.73;;;2.00;;
36355;SDS011;22384;54.302;18.596;2023-10-13T02:06:26;10.75;;;2.40;;
36355;SDS011;22384;54.302;18.596;2023-10-13T02:08:57;13.57;;;2.70;;
36355;SDS011;22384;54.302;18.596;2023-10-13T02:13:55;10.52;;;2.33;;
36355;SDS011;22384;54.302;18.596;2023-10-13T02:16:22;9.55;;;2.30;;
36355;SDS011;22384;54.302;18.596;2023-10-13T02:18:50;7.45;;;2.10;;
36355;SDS011;22384;54.302;18.596;2023-10-13T02:21:16;7.47;;;2.00;;
36355;SDS011;22384;54.302;18.596;2023-10-13T02:23:43;10.93;;;2.20;;
36355;SDS011;22384;54.302;18.596;2023-10-13T02:26:10;6.60;;;2.10;;
36355;SDS011;22384;54.302;18.596;2023-10-13T02:28:39;11.60;;;2.22;;
36355;SDS011;22384;54.302;18.596;2023-10-13T02:31:05;13.43;;;2.53;;
36355;SDS011;22384;54.302;18.596;2023-10-13T02:33:32;13.07;;;3.15;;
36355;SDS011;22384;54.302;18.596;2023-10-13T02:35:59;13.88;;;4.93;;
36355;SDS011;22384;54.302;18.596;2023-10-13T02:38:28;17.75;;;4.38;;
36355;SDS011;22384;54.302;18.596;2023-10-13T02:41:04;19.58;;;4.45;;
36355;SDS011;22384;54.302;18.596;2023-10-13T02:43:35;21.42;;;4.65;;
36355;SDS011;22384;54.302;18.596;2023-10-13T02:46:02;13.68;;;5.03;;
36355;SDS011;22384;54.302;18.596;2023-10-13T02:48:28;8.80;;;3.80;;
36355;SDS011;22384;54.302;18.596;2023-10-13T02:51:09;14.40;;;4.55;;
36355;SDS011;22384;54.302;18.596;2023-10-13T02:53:44;13.38;;;3.70;;
36355;SDS011;22384;54.302;18.596;2023-10-13T02:56:15;12.38;;;2.63;;
36355;SDS011;22384;54.302;18.596;2023-10-13T02:58:48;13.30;;;2.33;;
36355;SDS011;22384;54.302;18.596;2023-10-13T03:01:18;7.95;;;1.77;;
36355;SDS011;22384;54.302;18.596;2023-10-13T03:03:49;9.32;;;3.22;;
36355;SDS011;22384;54.302;18.596;2023-10-13T03:06:19;9.48;;;2.95;;
36355;SDS011;22384;54.302;18.596;2023-10-13T03:08:57;7.47;;;3.30;;
36355;SDS011;22384;54.302;18.596;2023-10-13T03:11:26;12.88;;;4.13;;
36355;SDS011;22384;54.302;18.596;2023-10-13T03:13:57;12.77;;;2.88;;
36355;SDS011;22384;54.302;18.596;2023-10-13T03:16:23;11.30;;;2.38;;
36355;SDS011;22384;54.302;18.596;2023-10-13T03:18:49;14.82;;;2.30;;
36355;SDS011;22384;54.302;18.596;2023-10-13T03:21:21;7.60;;;1.73;;
36355;SDS011;22384;54.302;18.596;2023-10-13T03:23:57;8.40;;;1.98;;
36355;SDS011;22384;54.302;18.596;2023-10-13T03:26:31;11.63;;;2.28;;
36355;SDS011;22384;54.302;18.596;2023-10-13T03:29:01;14.80;;;2.40;;
36355;SDS011;22384;54.302;18.596;2023-10-13T03:31:29;6.30;;;1.90;;
36355;SDS011;22384;54.302;18.596;2023-10-13T03:33:55;11.52;;;1.98;;
36355;SDS011;22384;54.302;18.596;2023-10-13T03:36:26;10.30;;;2.23;;
36355;SDS011;22384;54.302;18.596;2023-10-13T03:39:21;9.60;;;2.20;;
36355;SDS011;22384;54.302;18.596;2023-10-13T03:41:54;13.43;;;2.42;;
36355;SDS011;22384;54.302;18.596;2023-10-13T03:44:20;12.35;;;2.45;;
36355;SDS011;22384;54.302;18.596;2023-10-13T03:46:46;9.50;;;2.05;;
36355;SDS011;22384;54.302;18.596;2023-10-13T03:49:16;7.70;;;1.75;;
36355;SDS011;22384;54.302;18.596;2023-10-13T03:51:47;12.18;;;2.13;;
36355;SDS011;22384;54.302;18.596;2023-10-13T03:54:13;10.95;;;2.03;;
36355;SDS011;22384;54.302;18.596;2023-10-13T03:56:41;15.32;;;2.63;;
36355;SDS011;22384;54.302;18.596;2023-10-13T03:59:09;11.60;;;2.70;;
36355;SDS011;22384;54.302;18.596;2023-10-13T04:01:43;12.93;;;2.08;;
36355;SDS011;22384;54.302;18.596;2023-10-13T04:04:18;18.40;;;2.40;;
36355;SDS011;22384;54.302;18.596;2023-10-13T04:06:56;13.13;;;2.90;;
36355;SDS011;22384;54.302;18.596;2023-10-13T04:09:37;14.45;;;3.53;;
36355;SDS011;22384;54.302;18.596;2023-10-13T04:12:04;12.02;;;2.47;;
36355;SDS011;22384;54.302;18.596;2023-10-13T04:14:31;11.55;;;2.78;;
36355;SDS011;22384;54.302;18.596;2023-10-13T04:17:04;9.63;;;2.40;;
36355;SDS011;22384;54.302;18.596;2023-10-13T04:19:39;15.63;;;2.72;;
36355;SDS011;22384;54.302;18.596;2023-10-13T04:22:25;10.98;;;2.63;;
36355;SDS011;22384;54.302;18.596;2023-10-13T04:25:14;16.42;;;2.90;;
36355;SDS011;22384;54.302;18.596;2023-10-13T04:27:59;9.38;;;2.70;;
36355;SDS011;22384;54.302;18.596;2023-10-13T04:30:40;15.90;;;2.75;;
36355;SDS011;22384;54.302;18.596;2023-10-13T04:33:22;12.27;;;2.35;;
36355;SDS011;22384;54.302;18.596;2023-10-13T04:36:04;7.72;;;2.15;;
36355;SDS011;22384;54.302;18.596;2023-10-13T04:38:46;9.15;;;2.75;;
36355;SDS011;22384;54.302;18.596;2023-10-13T04:41:29;15.13;;;4.60;;
36355;SDS011;22384;54.302;18.596;2023-10-13T04:44:09;13.07;;;2.92;;
36355;SDS011;22384;54.302;18.596;2023-10-13T04:49:34;10.40;;;3.10;;
36355;SDS011;22384;54.302;18.596;2023-10-13T04:52:14;9.07;;;2.55;;
36355;SDS011;22384;54.302;18.596;2023-10-13T04:55:00;9.30;;;2.70;;
36355;SDS011;22384;54.302;18.596;2023-10-13T04:57:57;11.75;;;3.30;;
36355;SDS011;22384;54.302;18.596;2023-10-13T05:00:36;13.85;;;3.00;;
36355;SDS011;22384;54.302;18.596;2023-10-13T05:03:34;9.35;;;3.30;;
36355;SDS011;22384;54.302;18.596;2023-10-13T05:06:19;12.98;;;3.55;;
36355;SDS011;22384;54.302;18.596;2023-10-13T05:09:03;12.18;;;3.35;;
36355;SDS011;22384;54.302;18.596;2023-10-13T05:11:50;15.68;;;3.42;;
36355;SDS011;22384;54.302;18.596;2023-10-13T05:14:34;10.02;;;3.78;;
36355;SDS011;22384;54.302;18.596;2023-10-13T05:17:19;7.68;;;3.47;;
36355;SDS011;22384;54.302;18.596;2023-10-13T05:20:05;13.23;;;3.40;;
36355;SDS011;22384;54.302;18.596;2023-10-13T05:22:50;12.80;;;3.10;;
36355;SDS011;22384;54.302;18.596;2023-10-13T05:25:35;16.90;;;3.78;;
36355;SDS011;22384;54.302;18.596;2023-10-13T05:28:19;12.05;;;3.97;;
36355;SDS011;22384;54.302;18.596;2023-10-13T05:31:04;14.43;;;3.42;;
36355;SDS011;22384;54.302;18.596;2023-10-13T05:33:49;10.43;;;3.63;;
36355;SDS011;22384;54.302;18.596;2023-10-13T05:36:33;17.48;;;3.47;;
36355;SDS011;22384;54.302;18.596;2023-10-13T05:39:18;11.38;;;3.33;;
36355;SDS011;22384;54.302;18.596;2023-10-13T05:42:03;18.15;;;3.85;;
36355;SDS011;22384;54.302;18.596;2023-10-13T05:44:47;13.90;;;3.92;;
36355;SDS011;22384;54.302;18.596;2023-10-13T05:47:32;14.48;;;3.40;;
36355;SDS011;22384;54.302;18.596;2023-10-13T05:56:30;12.68;;;3.97;;
36355;SDS011;22384;54.302;18.596;2023-10-13T05:59:15;11.55;;;4.00;;
36355;SDS011;22384;54.302;18.596;2023-10-13T06:02:00;13.75;;;3.42;;
36355;SDS011;22384;54.302;18.596;2023-10-13T06:04:44;16.40;;;4.93;;
36355;SDS011;22384;54.302;18.596;2023-10-13T06:07:29;19.85;;;4.88;;
36355;SDS011;22384;54.302;18.596;2023-10-13T06:10:13;10.05;;;3.63;;
36355;SDS011;22384;54.302;18.596;2023-10-13T06:12:58;11.48;;;4.45;;
36355;SDS011;22384;54.302;18.596;2023-10-13T06:15:43;13.85;;;4.10;;
36355;SDS011;22384;54.302;18.596;2023-10-13T06:18:27;14.35;;;4.93;;
36355;SDS011;22384;54.302;18.596;2023-10-13T06:21:12;21.25;;;5.90;;
36355;SDS011;22384;54.302;18.596;2023-10-13T06:23:57;13.75;;;4.50;;
36355;SDS011;22384;54.302;18.596;2023-10-13T06:26:41;18.65;;;4.47;;
36355;SDS011;22384;54.302;18.596;2023-10-13T06:29:26;31.95;;;5.65;;
36355;SDS011;22384;54.302;18.596;2023-10-13T06:31:56;17.05;;;5.45;;
36355;SDS011;22384;54.302;18.596;2023-10-13T06:34:23;18.52;;;4.70;;
36355;SDS011;22384;54.302;18.596;2023-10-13T06:37:03;14.40;;;5.00;;
36355;SDS011;22384;54.302;18.596;2023-10-13T06:39:49;13.27;;;3.90;;
36355;SDS011;22384;54.302;18.596;2023-10-13T06:42:16;18.98;;;4.43;;
36355;SDS011;22384;54.302;18.596;2023-10-13T06:44:44;14.73;;;3.38;;
36355;SDS011;22384;54.302;18.596;2023-10-13T06:47:11;12.27;;;3.58;;
36355;SDS011;22384;54.302;18.596;2023-10-13T06:49:38;9.45;;;3.50;;
36355;SDS011;22384;54.302;18.596;2023-10-13T06:52:05;19.00;;;2.92;;
36355;SDS011;22384;54.302;18.596;2023-10-13T06:54:34;14.38;;;3.95;;
36355;SDS011;22384;54.302;18.596;2023-10-13T06:57:00;70.03;;;37.22;;
36355;SDS011;22384;54.302;18.596;2023-10-13T06:59:29;25.08;;;12.07;;
36355;SDS011;22384;54.302;18.596;2023-10-13T07:02:00;18.33;;;5.85;;
36355;SDS011;22384;54.302;18.596;2023-10-13T07:04:31;17.92;;;4.50;;
36355;SDS011;22384;54.302;18.596;2023-10-13T07:06:57;20.77;;;6.60;;
36355;SDS011;22384;54.302;18.596;2023-10-13T07:09:26;31.52;;;7.88;;
36355;SDS011;22384;54.302;18.596;2023-10-13T07:12:01;18.13;;;5.47;;
36355;SDS011;22384;54.302;18.596;2023-10-13T07:14:28;17.55;;;4.13;;
36355;SDS011;22384;54.302;18.596;2023-10-13T07:17:04;21.10;;;4.28;;
36355;SDS011;22384;54.302;18.596;2023-10-13T07:19:32;14.63;;;3.95;;
36355;SDS011;22384;54.302;18.596;2023-10-13T07:22:00;19.10;;;4.55;;
36355;SDS011;22384;54.302;18.596;2023-10-13T07:24:45;28.90;;;4.13;;
36355;SDS011;22384;54.302;18.596;2023-10-13T07:33:20;21.35;;;4.43;;
36355;SDS011;22384;54.302;18.596;2023-10-13T07:42:13;24.00;;;7.03;;
36355;SDS011;22384;54.302;18.596;2023-10-13T07:44:46;12.50;;;3.47;;
36355;SDS011;22384;54.302;18.596;2023-10-13T07:47:19;11.65;;;3.45;;
36355;SDS011;22384;54.302;18.596;2023-10-13T07:49:45;7.88;;;2.67;;
36355;SDS011;22384;54.302;18.596;2023-10-13T08:06:38;13.27;;;2.90;;
36355;SDS011;22384;54.302;18.596;2023-10-13T08:51:08;16.35;;;4.90;;
36355;SDS011;22384;54.302;18.596;2023-10-13T08:53:37;13.05;;;4.40;;
36355;SDS011;22384;54.302;18.596;2023-10-13T08:56:12;13.63;;;4.30;;
36355;SDS011;22384;54.302;18.596;2023-10-13T08:58:39;14.65;;;4.60;;
36355;SDS011;22384;54.302;18.596;2023-10-13T09:01:24;14.98;;;4.15;;
36355;SDS011;22384;54.302;18.596;2023-10-13T09:04:12;12.77;;;3.90;;
36355;SDS011;22384;54.302;18.596;2023-10-13T09:06:53;11.80;;;3.25;;
36355;SDS011;22384;54.302;18.596;2023-10-13T09:09:34;13.20;;;3.72;;
36355;SDS011;22384;54.302;18.596;2023-10-13T09:14:56;10.45;;;2.92;;
36355;SDS011;22384;54.302;18.596;2023-10-13T09:17:23;8.30;;;2.78;;
36355;SDS011;22384;54.302;18.596;2023-10-13T09:19:58;10.98;;;2.75;;
36355;SDS011;22384;54.302;18.596;2023-10-13T09:22:36;7.80;;;2.83;;
36355;SDS011;22384;54.302;18.596;2023-10-13T09:25:03;9.00;;;3.28;;
36355;SDS011;22384;54.302;18.596;2023-10-13T09:27:38;11.82;;;3.17;;
36355;SDS011;22384;54.302;18.596;2023-10-13T09:30:05;16.70;;;3.05;;
36355;SDS011;22384;54.302;18.596;2023-10-13T09:32:34;21.40;;;4.22;;
36355;SDS011;22384;54.302;18.596;2023-10-13T09:35:17;11.80;;;3.28;;
36355;SDS011;22384;54.302;18.596;2023-10-13T09:51:31;12.73;;;3.90;;
36355;SDS011;22384;54.302;18.596;2023-10-13T09:54:04;11.88;;;4.20;;
36355;SDS011;22384;54.302;18.596;2023-10-13T10:02:42;9.95;;;3.20;;
36355;SDS011;22384;54.302;18.596;2023-10-13T10:05:09;11.90;;;3.10;;
36355;SDS011;22384;54.302;18.596;2023-10-13T10:07:57;13.93;;;3.30;;
36355;SDS011;22384;54.302;18.596;2023-10-13T10:10:27;11.50;;;3.50;;
36355;SDS011;22384;54.302;18.596;2023-10-13T10:15:56;15.60;;;2.75;;
36355;SDS011;22384;54.302;18.596;2023-10-13T10:18:39;15.38;;;3.33;;
36355;SDS011;22384;54.302;18.596;2023-10-13T10:21:08;12.75;;;2.60;;
36355;SDS011;22384;54.302;18.596;2023-10-13T10:23:35;14.18;;;2.20;;
36355;SDS011;22384;54.302;18.596;2023-10-13T10:26:11;8.82;;;2.63;;
36355;SDS011;22384;54.302;18.596;2023-10-13T10:28:42;11.05;;;2.75;;
36355;SDS011;22384;54.302;18.596;2023-10-13T10:31:12;12.88;;;2.90;;
36355;SDS011;22384;54.302;18.596;2023-10-13T10:33:45;12.70;;;3.47;;
36355;SDS011;22384;54.302;18.596;2023-10-13T10:36:15;10.45;;;2.33;;
36355;SDS011;22384;54.302;18.596;2023-10-13T10:38:58;8.45;;;2.40;;
36355;SDS011;22384;54.302;18.596;2023-10-13T10:41:25;12.20;;;3.25;;
36355;SDS011;22384;54.302;18.596;2023-10-13T10:43:55;14.45;;;3.78;;
36355;SDS011;22384;54.302;18.596;2023-10-13T10:46:25;18.42;;;7.97;;
36355;SDS011;22384;54.302;18.596;2023-10-13T10:49:05;12.77;;;3.70;;
36355;SDS011;22384;54.302;18.596;2023-10-13T10:51:33;74.95;;;27.42;;
36355;SDS011;22384;54.302;18.596;2023-10-13T10:54:17;28.77;;;11.35;;
36355;SDS011;22384;54.302;18.596;2023-10-13T10:56:43;17.52;;;4.78;;
36355;SDS011;22384;54.302;18.596;2023-10-13T10:59:09;12.20;;;3.28;;
36355;SDS011;22384;54.302;18.596;2023-10-13T11:01:45;11.35;;;3.67;;
36355;SDS011;22384;54.302;18.596;2023-10-13T11:04:17;10.07;;;3.60;;
36355;SDS011;22384;54.302;18.596;2023-10-13T11:06:52;18.17;;;4.05;;
36355;SDS011;22384;54.302;18.596;2023-10-13T11:09:26;10.88;;;3.45;;
36355;SDS011;22384;54.302;18.596;2023-10-13T11:14:44;55.83;;;13.68;;
36355;SDS011;22384;54.302;18.596;2023-10-13T11:17:23;61.03;;;14.63;;
36355;SDS011;22384;54.302;18.596;2023-10-13T11:20:11;169.20;;;41.00;;
36355;SDS011;22384;54.302;18.596;2023-10-13T11:22:45;42.90;;;12.82;;
36355;SDS011;22384;54.302;18.596;2023-10-13T11:25:19;66.65;;;17.85;;
36355;SDS011;22384;54.302;18.596;2023-10-13T11:27:47;15.45;;;4.13;;
36355;SDS011;22384;54.302;18.596;2023-10-13T11:30:14;193.45;;;52.45;;
36355;SDS011;22384;54.302;18.596;2023-10-13T11:33:02;250.43;;;70.28;;
36355;SDS011;22384;54.302;18.596;2023-10-13T11:35:32;73.57;;;24.05;;
36355;SDS011;22384;54.302;18.596;2023-10-13T11:38:16;46.75;;;14.43;;
36355;SDS011;22384;54.302;18.596;2023-10-13T11:40:57;112.80;;;34.00;;
36355;SDS011;22384;54.302;18.596;2023-10-13T11:43:43;41.10;;;14.50;;
36355;SDS011;22384;54.302;18.596;2023-10-13T12:16:55;20.27;;;6.40;;
36355;SDS011;22384;54.302;18.596;2023-10-13T13:05:17;49.30;;;20.38;;
36355;SDS011;22384;54.302;18.596;2023-10-13T13:07:55;27.48;;;11.02;;
36355;SDS011;22384;54.302;18.596;2023-10-13T13:10:45;23.02;;;8.27;;
36355;SDS011;22384;54.302;18.596;2023-10-13T13:13:24;19.63;;;10.17;;
36355;SDS011;22384;54.302;18.596;2023-10-13T13:15:50;25.80;;;11.65;;
36355;SDS011;22384;54.302;18.596;2023-10-13T13:18:17;17.92;;;9.82;;
36355;SDS011;22384;54.302;18.596;2023-10-13T13:29:49;21.90;;;9.85;;
36355;SDS011;22384;54.302;18.596;2023-10-13T13:32:15;31.80;;;10.45;;
36355;SDS011;22384;54.302;18.596;2023-10-13T13:48:42;39.63;;;15.73;;
36355;SDS011;22384;54.302;18.596;2023-10-13T13:51:08;41.88;;;14.35;;
36355;SDS011;22384;54.302;18.596;2023-10-13T14:12:51;38.33;;;16.90;;
36355;SDS011;22384;54.302;18.596;2023-10-13T14:18:16;37.92;;;19.00;;
36355;SDS011;22384;54.302;18.596;2023-10-13T14:20:42;39.55;;;20.98;;
36355;SDS011;22384;54.302;18.596;2023-10-13T14:23:09;45.38;;;22.00;;
36355;SDS011;22384;54.302;18.596;2023-10-13T14:25:40;34.95;;;18.77;;
36355;SDS011;22384;54.302;18.596;2023-10-13T14:28:09;35.63;;;17.85;;
36355;SDS011;22384;54.302;18.596;2023-10-13T14:33:06;35.65;;;16.60;;
36355;SDS011;22384;54.302;18.596;2023-10-13T14:35:35;32.67;;;17.10;;
36355;SDS011;22384;54.302;18.596;2023-10-13T14:38:02;34.72;;;16.88;;
36355;SDS011;22384;54.302;18.596;2023-10-13T14:40:29;32.55;;;16.35;;
36355;SDS011;22384;54.302;18.596;2023-10-13T14:42:55;31.38;;;16.67;;
36355;SDS011;22384;54.302;18.596;2023-10-13T14:45:21;38.17;;;17.55;;
36355;SDS011;22384;54.302;18.596;2023-10-13T14:47:47;40.67;;;17.95;;
36355;SDS011;22384;54.302;18.596;2023-10-13T14:50:23;42.60;;;21.00;;
36355;SDS011;22384;54.302;18.596;2023-10-13T14:53:10;68.15;;;29.75;;
36355;SDS011;22384;54.302;18.596;2023-10-13T14:55:36;46.13;;;24.88;;
36355;SDS011;22384;54.302;18.596;2023-10-13T14:58:05;40.47;;;24.30;;
36355;SDS011;22384;54.302;18.596;2023-10-13T15:00:37;32.67;;;17.65;;
36355;SDS011;22384;54.302;18.596;2023-10-13T15:03:03;31.13;;;18.10;;
36355;SDS011;22384;54.302;18.596;2023-10-13T15:05:31;32.08;;;17.30;;
36355;SDS011;22384;54.302;18.596;2023-10-13T15:08:00;32.40;;;18.23;;
36355;SDS011;22384;54.302;18.596;2023-10-13T15:10:28;32.83;;;17.83;;
36355;SDS011;22384;54.302;18.596;2023-10-13T15:12:54;30.33;;;17.08;;
36355;SDS011;22384;54.302;18.596;2023-10-13T15:15:20;29.48;;;17.65;;
36355;SDS011;22384;54.302;18.596;2023-10-13T15:17:46;29.52;;;17.60;;
36355;SDS011;22384;54.302;18.596;2023-10-13T15:20:18;38.90;;;18.27;;
36355;SDS011;22384;54.302;18.596;2023-10-13T15:22:44;34.03;;;17.65;;
36355;SDS011;22384;54.302;18.596;2023-10-13T15:25:13;33.50;;;17.75;;
36355;SDS011;22384;54.302;18.596;2023-10-13T15:27:46;67.13;;;33.03;;
36355;SDS011;22384;54.302;18.596;2023-10-13T15:30:20;40.13;;;21.08;;
36355;SDS011;22384;54.302;18.596;2023-10-13T15:32:48;32.33;;;17.73;;
36355;SDS011;22384;54.302;18.596;2023-10-13T15:35:16;29.50;;;17.58;;
36355;SDS011;22384;54.302;18.596;2023-10-13T15:37:42;34.17;;;17.67;;
36355;SDS011;22384;54.302;18.596;2023-10-13T15:40:12;30.70;;;17.02;;
36355;SDS011;22384;54.302;18.596;2023-10-13T15:42:41;33.10;;;20.17;;
36355;SDS011;22384;54.302;18.596;2023-10-13T15:45:10;35.67;;;18.73;;
36355;SDS011;22384;54.302;18.596;2023-10-13T15:47:45;29.27;;;19.70;;
36355;SDS011;22384;54.302;18.596;2023-10-13T15:50:15;40.30;;;20.83;;
36355;SDS011;22384;54.302;18.596;2023-10-13T15:52:46;32.58;;;19.10;;
36355;SDS011;22384;54.302;18.596;2023-10-13T15:55:13;41.13;;;19.02;;
36355;SDS011;22384;54.302;18.596;2023-10-13T15:57:40;39.35;;;21.40;;
36355;SDS011;22384;54.302;18.596;2023-10-13T16:00:08;33.28;;;18.75;;
36355;SDS011;22384;54.302;18.596;2023-10-13T16:02:51;38.92;;;19.20;;
36355;SDS011;22384;54.302;18.596;2023-10-13T16:05:17;42.63;;;26.90;;
36355;SDS011;22384;54.302;18.596;2023-10-13T16:07:44;80.82;;;43.40;;
36355;SDS011;22384;54.302;18.596;2023-10-13T16:10:11;49.25;;;31.40;;
36355;SDS011;22384;54.302;18.596;2023-10-13T16:12:37;30.92;;;19.08;;
36355;SDS011;22384;54.302;18.596;2023-10-13T16:15:03;29.80;;;16.35;;
36355;SDS011;22384;54.302;18.596;2023-10-13T16:17:38;25.73;;;16.05;;
36355;SDS011;22384;54.302;18.596;2023-10-13T16:20:05;25.77;;;14.60;;
36355;SDS011;22384;54.302;18.596;2023-10-13T16:22:41;27.10;;;15.43;;
36355;SDS011;22384;54.302;18.596;2023-10-13T16:25:09;28.63;;;15.32;;
36355;SDS011;22384;54.302;18.596;2023-10-13T16:27:36;21.65;;;13.55;;
36355;SDS011;22384;54.302;18.596;2023-10-13T16:30:06;27.42;;;14.85;;
36355;SDS011;22384;54.302;18.596;2023-10-13T16:32:34;24.52;;;14.02;;
36355;SDS011;22384;54.302;18.596;2023-10-13T16:35:01;25.35;;;15.13;;
36355;SDS011;22384;54.302;18.596;2023-10-13T16:37:27;27.88;;;15.50;;
36355;SDS011;22384;54.302;18.596;2023-10-13T16:39:55;30.30;;;18.40;;
36355;SDS011;22384;54.302;18.596;2023-10-13T16:42:30;117.45;;;59.65;;
36355;SDS011;22384;54.302;18.596;2023-10-13T16:44:58;83.07;;;44.50;;
36355;SDS011;22384;54.302;18.596;2023-10-13T16:47:39;27.95;;;15.85;;
36355;SDS011;22384;54.302;18.596;2023-10-13T16:50:07;29.33;;;15.48;;
36355;SDS011;22384;54.302;18.596;2023-10-13T16:52:33;24.63;;;13.50;;
36355;SDS011;22384;54.302;18.596;2023-10-13T16:54:59;29.98;;;14.50;;
36355;SDS011;22384;54.302;18.596;2023-10-13T16:57:25;20.02;;;12.60;;
36355;SDS011;22384;54.302;18.596;2023-10-13T16:59:51;25.45;;;13.95;;
36355;SDS011;22384;54.302;18.596;2023-10-13T17:02:18;26.30;;;14.43;;
36355;SDS011;22384;54.302;18.596;2023-10-13T17:04:44;17.17;;;11.95;;
36355;SDS011;22384;54.302;18.596;2023-10-13T17:07:10;23.15;;;12.45;;
36355;SDS011;22384;54.302;18.596;2023-10-13T17:09:39;22.88;;;12.85;;
36355;SDS011;22384;54.302;18.596;2023-10-13T17:12:05;20.30;;;12.38;;
36355;SDS011;22384;54.302;18.596;2023-10-13T17:14:31;38.05;;;21.38;;
36355;SDS011;22384;54.302;18.596;2023-10-13T17:16:57;43.03;;;29.85;;
36355;SDS011;22384;54.302;18.596;2023-10-13T17:19:23;24.52;;;11.88;;
36355;SDS011;22384;54.302;18.596;2023-10-13T17:21:49;22.65;;;13.48;;
36355;SDS011;22384;54.302;18.596;2023-10-13T17:24:20;21.13;;;12.25;;
36355;SDS011;22384;54.302;18.596;2023-10-13T17:26:46;18.88;;;11.50;;
36355;SDS011;22384;54.302;18.596;2023-10-13T17:29:14;17.90;;;12.20;;
36355;SDS011;22384;54.302;18.596;2023-10-13T17:31:40;18.42;;;11.35;;
36355;SDS011;22384;54.302;18.596;2023-10-13T17:34:07;23.08;;;12.15;;
36355;SDS011;22384;54.302;18.596;2023-10-13T17:36:33;18.52;;;10.27;;
36355;SDS011;22384;54.302;18.596;2023-10-13T17:38:59;22.45;;;12.02;;
36355;SDS011;22384;54.302;18.596;2023-10-13T17:41:25;20.73;;;11.65;;
36355;SDS011;22384;54.302;18.596;2023-10-13T17:43:55;16.20;;;10.13;;
36355;SDS011;22384;54.302;18.596;2023-10-13T17:46:23;13.90;;;10.18;;
36355;SDS011;22384;54.302;18.596;2023-10-13T17:48:49;15.45;;;10.07;;
36355;SDS011;22384;54.302;18.596;2023-10-13T17:51:20;17.25;;;10.13;;
36355;SDS011;22384;54.302;18.596;2023-10-13T17:53:48;12.23;;;9.13;;
36355;SDS011;22384;54.302;18.596;2023-10-13T17:56:14;19.20;;;11.52;;
36355;SDS011;22384;54.302;18.596;2023-10-13T18:02:03;13.75;;;8.63;;
36355;SDS011;22384;54.302;18.596;2023-10-13T18:24:11;13.33;;;9.30;;
36355;SDS011;22384;54.302;18.596;2023-10-13T18:26:37;13.52;;;8.85;;
36355;SDS011;22384;54.302;18.596;2023-10-13T18:29:04;15.65;;;9.75;;
36355;SDS011;22384;54.302;18.596;2023-10-13T18:31:30;16.35;;;9.20;;
36355;SDS011;22384;54.302;18.596;2023-10-13T18:39:53;15.05;;;8.50;;
36355;SDS011;22384;54.302;18.596;2023-10-13T19:25:13;10.27;;;6.82;;
36355;SDS011;22384;54.302;18.596;2023-10-13T19:27:39;13.50;;;6.75;;
36355;SDS011;22384;54.302;18.596;2023-10-13T19:30:05;8.82;;;6.22;;
36355;SDS011;22384;54.302;18.596;2023-10-13T19:32:32;12.98;;;6.70;;
36355;SDS011;22384;54.302;18.596;2023-10-13T19:34:58;10.15;;;6.78;;
36355;SDS011;22384;54.302;18.596;2023-10-13T19:37:24;12.20;;;6.22;;
36355;SDS011;22384;54.302;18.596;2023-10-13T19:39:50;16.67;;;9.18;;
36355;SDS011;22384;54.302;18.596;2023-10-13T19:42:16;11.88;;;7.93;;
36355;SDS011;22384;54.302;18.596;2023-10-13T19:44:46;13.07;;;6.53;;
36355;SDS011;22384;54.302;18.596;2023-10-13T19:50:15;10.73;;;6.55;;
36355;SDS011;22384;54.302;18.596;2023-10-13T19:52:59;14.70;;;6.50;;
36355;SDS011;22384;54.302;18.596;2023-10-13T20:01:39;20.35;;;6.63;;
36355;SDS011;22384;54.302;18.596;2023-10-13T20:04:07;15.52;;;6.35;;